Time;durP1;ratioP1;P1;durP2;ratioP2;P2;SDS_P1;SDS_P2;PMS_P1;PMS_P2;Temp;Humidity;BMP_temperature;BMP_pressure;BME280_temperature;BME280_humidity;BME280_pressure;Samples;Min_cycle;Max_cycle;Signal;HPM_P1;HPM_P2
2021/08/08 00:02:22;;;;;;;5.80;2.60;;;;;;;29.93;47.43;100746.75;128915;1084;64205;-86
2021/08/08 00:04:48;;;;;;;3.77;2.60;;;;;;;29.93;47.18;100744.02;128470;1084;64131;-86
2021/08/08 00:07:16;;;;;;;4.00;2.70;;;;;;;29.93;47.45;100740.47;128526;1084;64203;-85
2021/08/08 00:09:43;;;;;;;4.47;2.80;;;;;;;29.93;47.04;100743.19;128521;1083;64102;-85
2021/08/08 00:12:10;;;;;;;4.57;2.80;;;;;;;29.92;47.63;100736.03;128437;1084;64166;-86
2021/08/08 00:14:36;;;;;;;4.27;3.00;;;;;;;29.92;47.16;100736.03;128534;1083;64121;-86
2021/08/08 00:17:03;;;;;;;5.83;3.13;;;;;;;29.92;47.11;100733.31;128514;1084;64131;-86
2021/08/08 00:19:30;;;;;;;5.10;3.10;;;;;;;29.93;47.15;100735.02;128489;1082;64185;-86
2021/08/08 00:21:57;;;;;;;5.00;3.00;;;;;;;29.92;47.38;100727.88;128523;1084;64124;-85
2021/08/08 00:24:23;;;;;;;5.03;3.03;;;;;;;29.91;47.66;100743.36;128473;1084;64080;-85
2021/08/08 00:26:52;;;;;;;4.77;2.83;;;;;;;29.91;47.19;100737.92;128457;1083;64311;-85
2021/08/08 00:29:19;;;;;;;4.90;3.30;;;;;;;29.91;47.66;100737.92;128458;1084;64089;-86
2021/08/08 00:31:48;;;;;;;5.40;3.13;;;;;;;29.91;47.21;100743.36;128902;1084;64103;-86
2021/08/08 00:34:14;;;;;;;5.33;3.17;;;;;;;29.91;47.28;100748.80;128508;1084;64171;-85
2021/08/08 00:36:41;;;;;;;4.30;2.90;;;;;;;29.92;47.53;100741.48;128478;1083;64179;-85
2021/08/08 00:39:08;;;;;;;4.13;2.90;;;;;;;29.91;47.65;100743.36;128932;1084;64236;-87
2021/08/08 00:41:37;;;;;;;4.53;3.00;;;;;;;29.91;47.64;100747.93;128881;1083;64153;-85
2021/08/08 00:44:04;;;;;;;4.90;3.20;;;;;;;29.91;47.63;100747.93;128517;1082;64148;-86
2021/08/08 00:46:30;;;;;;;4.50;2.97;;;;;;;29.90;47.45;100749.81;128918;1084;63994;-85
2021/08/08 00:48:57;;;;;;;4.60;2.90;;;;;;;29.90;47.58;100747.09;128445;1084;64109;-85
2021/08/08 00:51:27;;;;;;;4.10;2.93;;;;;;;29.90;47.50;100749.81;128489;1084;64243;-85
2021/08/08 00:53:53;;;;;;;5.43;3.00;;;;;;;29.90;47.69;100744.38;128928;1084;64129;-85
2021/08/08 00:56:29;;;;;;;5.57;3.03;;;;;;;29.90;47.70;100748.98;128892;1083;64089;-86
2021/08/08 00:58:58;;;;;;;4.73;3.27;;;;;;;29.90;47.58;100760.70;128526;1084;64131;-86
2021/08/08 01:01:27;;;;;;;3.70;2.60;;;;;;;29.89;47.16;100761.71;128460;1084;64096;-86
2021/08/08 01:03:57;;;;;;;4.20;3.08;;;;;;;29.89;47.29;100756.27;128534;1084;64143;-86
2021/08/08 01:07:01;;;;;;;4.50;3.00;;;;;;;29.89;47.34;100755.44;128925;1083;64141;-85
2021/08/08 01:09:31;;;;;;;4.00;2.90;;;;;;;29.89;47.55;100756.27;128465;1084;64127;-87
2021/08/08 01:11:57;;;;;;;4.00;2.73;;;;;;;29.89;47.61;100755.44;128503;1084;64147;-87
2021/08/08 01:14:23;;;;;;;4.03;2.60;;;;;;;29.89;47.66;100758.16;128922;1084;64283;-86
2021/08/08 01:16:52;;;;;;;5.47;3.00;;;;;;;29.89;47.52;100769.03;128488;1084;64209;-86
2021/08/08 01:19:20;;;;;;;4.00;2.83;;;;;;;29.89;47.64;100760.88;128902;1084;64219;-86
2021/08/08 01:21:47;;;;;;;4.57;3.07;;;;;;;29.89;47.61;100766.31;128473;1084;64092;-86
2021/08/08 01:24:13;;;;;;;4.83;3.07;;;;;;;29.89;47.51;100758.16;128526;1084;64214;-86
2021/08/08 01:26:40;;;;;;;4.33;2.83;;;;;;;29.88;47.55;100765.45;128882;1084;64170;-86
2021/08/08 01:29:06;;;;;;;4.30;2.70;;;;;;;29.88;47.10;100767.33;128877;1084;64128;-86
2021/08/08 01:31:32;;;;;;;4.77;3.13;;;;;;;29.88;47.58;100767.33;128912;1082;64220;-86
2021/08/08 01:33:59;;;;;;;4.65;2.90;;;;;;;29.88;47.21;100764.61;128523;1084;64237;-86
2021/08/08 01:36:25;;;;;;;4.20;2.80;;;;;;;29.88;47.20;100764.61;128533;1084;64173;-86
2021/08/08 01:39:03;;;;;;;4.60;2.93;;;;;;;29.88;47.51;100770.05;128466;1084;64205;-86
2021/08/08 01:41:31;;;;;;;4.17;2.80;;;;;;;29.86;47.63;100761.19;128509;1084;64147;-86
2021/08/08 01:43:57;;;;;;;4.30;3.25;;;;;;;29.87;47.57;100758.33;128535;1084;64733;-85
2021/08/08 01:46:33;;;;;;;4.40;2.80;;;;;;;29.87;47.25;100766.49;128442;1084;64279;-86
2021/08/08 01:48:59;;;;;;;5.80;2.90;;;;;;;29.87;47.52;100773.78;128485;1084;64179;-86
2021/08/08 01:51:26;;;;;;;4.93;2.70;;;;;;;29.86;47.08;100764.78;128480;1084;64131;-86
2021/08/08 01:53:52;;;;;;;4.37;2.90;;;;;;;29.87;47.26;100773.78;128935;1084;65330;-85
2021/08/08 01:56:19;;;;;;;4.23;3.00;;;;;;;29.86;47.52;100770.23;128452;1084;64266;-86
2021/08/08 01:58:45;;;;;;;4.90;2.77;;;;;;;29.87;47.63;100777.38;128453;1084;64269;-86
2021/08/08 02:01:11;;;;;;;4.97;3.17;;;;;;;29.86;47.15;100772.95;128488;1084;64132;-86
2021/08/08 02:03:39;;;;;;;4.63;2.63;;;;;;;29.86;47.34;100769.36;128498;1084;63945;-86
2021/08/08 02:06:07;;;;;;;;;;;;;;;29.86;47.13;100769.36;128614;1084;63973;-85
2021/08/08 02:08:33;;;;;;;3.90;2.83;;;;;;;29.85;47.21;100775.81;129008;1084;64083;-84
2021/08/08 02:11:00;;;;;;;4.63;3.00;;;;;;;29.85;47.33;100773.92;129085;1084;62179;-84
2021/08/08 02:13:26;;;;;;;4.63;2.77;;;;;;;29.86;47.34;100774.80;129118;1084;64211;-84
2021/08/08 02:15:52;;;;;;;4.10;2.70;;;;;;;29.85;47.26;100779.37;128502;1084;64099;-85
2021/08/08 02:18:18;;;;;;;5.23;3.10;;;;;;;29.86;47.18;100782.95;128484;1084;64095;-85
2021/08/08 02:20:45;;;;;;;3.67;2.70;;;;;;;29.87;47.66;100784.66;128501;1083;64133;-85
2021/08/08 02:23:12;;;;;;;4.70;3.00;;;;;;;29.87;47.20;100792.83;128506;1084;64188;-86
2021/08/08 02:25:38;;;;;;;4.83;2.90;;;;;;;29.87;47.28;100787.39;128541;1082;64157;-85
2021/08/08 02:28:08;;;;;;;4.60;2.93;;;;;;;29.87;47.28;100787.39;128479;1082;64259;-86
2021/08/08 02:30:36;;;;;;;4.83;2.87;;;;;;;29.87;47.57;100795.55;128512;1084;64147;-85
2021/08/08 02:33:14;;;;;;;4.33;3.13;;;;;;;29.86;47.23;100791.99;128508;1084;64083;-86
2021/08/08 02:35:43;;;;;;;3.93;2.83;;;;;;;29.86;47.18;100800.16;128524;1084;64334;-86
2021/08/08 02:38:18;;;;;;;5.80;2.90;;;;;;;29.86;47.11;100805.59;128473;1084;64211;-86
2021/08/08 02:40:46;;;;;;;4.77;2.70;;;;;;;29.86;47.37;100810.17;128505;1084;64454;-86
2021/08/08 02:43:13;;;;;;;4.90;2.93;;;;;;;29.85;47.18;100813.91;128523;1084;64177;-86
2021/08/08 02:45:39;;;;;;;3.80;2.60;;;;;;;29.86;47.42;100804.73;128468;1082;61769;-86
2021/08/08 02:48:33;;;;;;;4.27;3.00;;;;;;;29.85;47.14;100819.34;128504;1083;64275;-86
2021/08/08 02:50:59;;;;;;;4.30;3.10;;;;;;;29.85;47.12;100822.06;127960;1085;64645;-86
2021/08/08 02:53:25;;;;;;;4.33;2.83;;;;;;;29.85;47.66;100830.23;128021;1086;61888;-86
2021/08/08 02:55:51;;;;;;;4.47;2.90;;;;;;;29.83;47.57;100827.68;128007;1085;64282;-85
2021/08/08 02:58:18;;;;;;;5.03;2.83;;;;;;;29.84;47.71;100831.23;128034;1087;64137;-86
2021/08/08 03:00:44;;;;;;;4.90;3.43;;;;;;;29.85;47.38;100832.95;128001;1087;64226;-86
2021/08/08 03:03:11;;;;;;;4.00;2.83;;;;;;;29.83;47.68;100841.28;127918;1085;64248;-85
2021/08/08 03:05:38;;;;;;;4.40;3.00;;;;;;;29.84;47.14;100847.56;127990;1087;64104;-85
2021/08/08 03:08:05;;;;;;;4.33;2.80;;;;;;;29.83;47.47;100846.73;128032;1087;64253;-86
2021/08/08 03:10:31;;;;;;;4.53;3.07;;;;;;;29.83;47.42;100846.73;128005;1087;64275;-86
2021/08/08 03:12:58;;;;;;;4.53;2.97;;;;;;;29.83;47.30;100851.30;128024;1087;64320;-85
2021/08/08 03:15:24;;;;;;;4.23;2.83;;;;;;;29.83;47.68;100854.02;128032;1085;64243;-86
2021/08/08 03:17:50;;;;;;;4.70;2.90;;;;;;;29.83;47.69;100851.30;127986;1087;64284;-86
2021/08/08 03:20:16;;;;;;;5.20;2.80;;;;;;;29.83;47.22;100857.61;128031;1085;64102;-86
2021/08/08 03:22:45;;;;;;;4.07;3.00;;;;;;;29.83;47.24;100863.05;127940;1087;64286;-85
2021/08/08 03:25:11;;;;;;;4.50;2.90;;;;;;;29.82;47.65;100855.90;128046;1086;64141;-85
2021/08/08 03:27:37;;;;;;;4.17;2.77;;;;;;;29.82;47.77;100860.47;128059;1084;64419;-86
2021/08/08 03:30:08;;;;;;;3.93;2.70;;;;;;;29.82;47.54;100868.63;128463;1084;64118;-86
2021/08/08 03:32:35;;;;;;;4.00;2.90;;;;;;;29.82;47.29;100860.47;128512;1084;61792;-85
2021/08/08 03:35:01;;;;;;;4.23;2.90;;;;;;;29.81;47.42;100870.52;128895;1084;64048;-86
2021/08/08 03:37:28;;;;;;;5.10;3.13;;;;;;;29.82;47.45;100872.23;128464;1084;64147;-85
2021/08/08 03:39:54;;;;;;;4.83;3.00;;;;;;;29.81;47.29;100878.67;128885;1084;64287;-85
2021/08/08 03:42:20;;;;;;;4.50;3.00;;;;;;;29.82;47.47;100874.95;128497;1084;64130;-86
2021/08/08 03:44:50;;;;;;;4.63;2.67;;;;;;;29.82;47.73;100879.52;128491;1084;64285;-86
2021/08/08 03:47:19;;;;;;;4.40;3.00;;;;;;;29.82;47.62;100882.23;128496;1084;64124;-85
2021/08/08 03:49:45;;;;;;;4.13;2.80;;;;;;;29.82;47.35;100885.83;128503;1084;64151;-87
2021/08/08 03:52:11;;;;;;;4.37;3.10;;;;;;;29.82;47.64;100893.13;128513;1084;64125;-86
2021/08/08 03:54:38;;;;;;;3.80;2.60;;;;;;;29.82;47.35;100893.13;128480;1084;64716;-85
2021/08/08 03:57:04;;;;;;;4.80;2.90;;;;;;;29.83;47.44;100879.38;128492;1084;64166;-87
2021/08/08 03:59:31;;;;;;;4.43;2.80;;;;;;;29.82;47.47;100880.39;128479;1084;64092;-85
2021/08/08 04:01:57;;;;;;;4.13;3.03;;;;;;;29.82;47.33;100880.39;128901;1084;64185;-86
2021/08/08 04:04:23;;;;;;;4.73;2.80;;;;;;;29.82;47.75;100883.11;128476;1083;64282;-86
2021/08/08 04:06:49;;;;;;;4.73;3.07;;;;;;;29.82;47.82;100879.52;128883;1084;64122;-86
2021/08/08 04:09:15;;;;;;;4.63;3.07;;;;;;;29.82;47.45;100882.23;128499;1084;64451;-85
2021/08/08 04:11:45;;;;;;;5.00;3.10;;;;;;;29.82;47.54;100885.83;128516;1084;64629;-86
2021/08/08 04:14:11;;;;;;;6.33;3.13;;;;;;;29.82;47.78;100896.72;128500;1084;64099;-86
2021/08/08 04:16:41;;;;;;;5.10;2.90;;;;;;;29.82;47.39;100890.41;128483;1084;64304;-86
2021/08/08 04:19:09;;;;;;;4.87;3.17;;;;;;;29.82;47.73;100890.41;128465;1084;64179;-86
2021/08/08 04:21:45;;;;;;;4.27;3.00;;;;;;;29.82;47.74;100888.55;128509;1084;64203;-86
2021/08/08 04:24:11;;;;;;;4.13;2.70;;;;;;;29.82;47.34;100899.44;128487;1084;64141;-85
2021/08/08 04:26:37;;;;;;;4.05;2.60;;;;;;;29.82;47.82;100887.68;128499;1084;64227;-85
2021/08/08 04:29:04;;;;;;;4.90;2.80;;;;;;;29.82;47.38;100893.99;128456;1082;64151;-86
2021/08/08 04:31:30;;;;;;;3.80;2.60;;;;;;;29.82;47.70;100895.84;128528;1084;64124;-86
2021/08/08 04:33:56;;;;;;;4.70;2.90;;;;;;;29.82;47.78;100904.88;128477;1084;64163;-86
2021/08/08 04:36:31;;;;;;;4.20;2.97;;;;;;;29.82;47.35;100899.44;128499;1084;64211;-86
2021/08/08 04:38:57;;;;;;;5.73;3.10;;;;;;;29.82;47.70;100893.13;128912;1083;64106;-86
2021/08/08 04:41:24;;;;;;;3.90;2.70;;;;;;;29.82;47.40;100893.99;128924;1084;64646;-86
2021/08/08 04:43:50;;;;;;;4.53;2.90;;;;;;;29.82;47.69;100895.84;128479;1084;64241;-86
2021/08/08 04:46:19;;;;;;;3.90;2.83;;;;;;;29.83;47.47;100905.72;128451;1084;64127;-86
2021/08/08 04:48:45;;;;;;;4.27;2.80;;;;;;;29.83;47.55;100905.72;128898;1084;64291;-86
2021/08/08 04:51:12;;;;;;;4.37;2.80;;;;;;;29.83;47.22;100903.87;128908;1082;64215;-85
2021/08/08 04:53:38;;;;;;;4.10;2.87;;;;;;;29.83;47.54;100906.59;128510;1084;65335;-85
2021/08/08 04:56:04;;;;;;;4.40;3.00;;;;;;;29.83;47.33;100920.20;128911;1084;64134;-85
2021/08/08 04:58:30;;;;;;;4.50;3.20;;;;;;;29.83;47.24;100919.32;128460;1084;64131;-86
2021/08/08 05:00:58;;;;;;;5.60;3.40;;;;;;;29.84;47.51;100916.43;128472;1082;64162;-86
2021/08/08 05:03:39;;;;;;;;;;;;;;;;;;;;;
2021/08/08 05:06:08;;;;;;;4.93;2.77;;;;;;;29.85;47.26;100920.86;128886;1084;64124;-86
2021/08/08 05:08:39;;;;;;;4.70;3.17;;;;;;;29.86;47.58;100922.61;128537;1083;64133;-85
2021/08/08 05:11:05;;;;;;;4.60;2.90;;;;;;;29.87;47.92;100918.88;128483;1084;64019;-86
2021/08/08 05:13:32;;;;;;;4.33;2.80;;;;;;;29.88;48.06;100915.11;128512;1084;64211;-85
2021/08/08 05:15:58;;;;;;;6.10;3.23;;;;;;;29.88;47.70;100914.27;128900;1082;64131;-87
2021/08/08 05:18:25;;;;;;;4.50;2.67;;;;;;;29.88;48.05;100909.67;128505;1084;64128;-85
2021/08/08 05:20:51;;;;;;;4.30;3.00;;;;;;;29.89;48.16;100916.83;128484;1082;64252;-86
2021/08/08 05:23:17;;;;;;;4.10;2.90;;;;;;;29.90;48.28;100912.25;128457;1084;64175;-85
2021/08/08 05:25:44;;;;;;;4.47;3.00;;;;;;;29.91;48.18;100914.80;128463;1084;64205;-86
2021/08/08 05:28:10;;;;;;;4.20;2.90;;;;;;;29.93;47.95;100910.03;128475;1084;64229;-87
2021/08/08 05:30:39;;;;;;;4.20;2.70;;;;;;;29.93;48.07;100917.35;128488;1083;64202;-86
2021/08/08 05:33:05;;;;;;;4.20;2.80;;;;;;;29.93;47.94;100918.20;128502;1084;64095;-86
2021/08/08 05:35:31;;;;;;;4.03;2.60;;;;;;;29.96;48.33;100916.17;128487;1084;64230;-87
2021/08/08 05:37:57;;;;;;;6.47;3.07;;;;;;;29.96;48.57;100914.29;128476;1084;64118;-85
2021/08/08 05:40:23;;;;;;;5.20;3.05;;;;;;;29.97;48.65;100924.16;128516;1083;63035;-85
2021/08/08 05:42:50;;;;;;;5.33;3.00;;;;;;;29.98;48.36;100917.71;128468;1084;64131;-85
2021/08/08 05:45:20;;;;;;;4.20;2.77;;;;;;;29.99;48.13;100918.55;128507;1083;64138;-86
2021/08/08 05:47:46;;;;;;;4.37;2.80;;;;;;;30.00;48.17;100918.38;128514;1083;64128;-86
2021/08/08 05:50:12;;;;;;;5.13;2.90;;;;;;;30.01;48.21;100919.25;128507;1082;64221;-86
2021/08/08 05:52:38;;;;;;;4.55;2.80;;;;;;;30.02;48.20;100923.66;128527;1084;64659;-86
2021/08/08 05:55:05;;;;;;;5.93;3.10;;;;;;;30.02;48.40;100916.36;128510;1084;64182;-86
2021/08/08 05:57:33;;;;;;;4.83;3.10;;;;;;;30.03;48.14;100907.18;128476;1084;64166;-86
2021/08/08 06:00:00;;;;;;;;;;;;;;;30.03;48.59;100909.91;128510;1084;64198;-85
2021/08/08 06:02:26;;;;;;;4.27;3.10;;;;;;;30.03;48.50;100914.48;128506;1082;64121;-85
2021/08/08 06:04:55;;;;;;;4.80;3.00;;;;;;;30.04;48.29;100910.74;128898;1084;64361;-85
2021/08/08 06:07:21;;;;;;;4.43;3.00;;;;;;;30.06;48.53;100914.13;128481;1084;64275;-86
2021/08/08 06:09:47;;;;;;;4.30;3.13;;;;;;;30.06;48.28;100914.13;128505;1084;64134;-85
2021/08/08 06:12:14;;;;;;;4.43;2.80;;;;;;;30.07;48.27;100913.13;128973;1083;64135;-85
2021/08/08 06:14:40;;;;;;;4.60;2.90;;;;;;;30.07;48.29;100911.27;128671;1082;64050;-85
2021/08/08 06:17:06;;;;;;;4.80;3.20;;;;;;;30.08;48.69;100912.11;128658;1084;64127;-84
2021/08/08 06:19:32;;;;;;;4.40;2.80;;;;;;;30.10;48.77;100910.09;128726;1084;64225;-84
2021/08/08 06:21:58;;;;;;;4.37;2.87;;;;;;;30.12;48.41;100905.31;128457;1084;64102;-85
2021/08/08 06:24:24;;;;;;;4.70;2.97;;;;;;;30.12;48.71;100905.31;128451;1084;64099;-86
2021/08/08 06:26:52;;;;;;;6.00;3.07;;;;;;;30.15;48.59;100906.84;128541;1084;64131;-86
2021/08/08 06:29:18;;;;;;;6.58;3.18;;;;;;;30.14;48.36;100908.73;128930;1084;64296;-86
2021/08/08 06:31:44;;;;;;;4.27;2.97;;;;;;;30.15;48.89;100910.41;128481;1084;64157;-85
2021/08/08 06:34:10;;;;;;;5.00;3.20;;;;;;;30.16;48.59;100905.84;128502;1084;64224;-85
2021/08/08 06:36:37;;;;;;;4.53;3.30;;;;;;;30.16;48.54;100908.56;128491;1084;62245;-86
2021/08/08 06:39:06;;;;;;;4.58;3.00;;;;;;;30.16;48.54;100909.40;128580;1084;64172;-85
2021/08/08 06:41:35;;;;;;;4.97;3.33;;;;;;;30.17;48.54;100911.11;128556;1083;64128;-86
2021/08/08 06:44:01;;;;;;;4.75;2.93;;;;;;;30.17;48.85;100907.55;128477;1084;64154;-87
2021/08/08 06:46:28;;;;;;;4.87;3.10;;;;;;;30.17;48.37;100913.83;128896;1082;64106;-86
2021/08/08 06:48:54;;;;;;;5.70;2.90;;;;;;;30.17;48.28;100913.83;128501;1082;64102;-86
2021/08/08 06:51:20;;;;;;;5.27;3.40;;;;;;;30.18;48.43;100917.39;128535;1084;64125;-86
2021/08/08 06:53:47;;;;;;;4.67;2.80;;;;;;;30.18;48.37;100917.39;128503;1084;64502;-86
2021/08/08 06:56:14;;;;;;;4.53;2.97;;;;;;;30.18;48.74;100923.71;128481;1084;64633;-86
2021/08/08 06:58:40;;;;;;;4.47;2.93;;;;;;;30.18;48.28;100920.98;128905;1084;64150;-87
2021/08/08 07:01:06;;;;;;;5.13;2.90;;;;;;;30.18;48.64;100926.43;128524;1084;64125;-86
2021/08/08 07:03:32;;;;;;;4.10;3.07;;;;;;;30.19;48.71;100930.00;128509;1084;64249;-86
2021/08/08 07:05:59;;;;;;;4.27;2.77;;;;;;;30.18;48.42;100925.56;128464;1082;64093;-86
2021/08/08 07:08:25;;;;;;;4.03;2.87;;;;;;;30.19;48.73;100925.39;128493;1084;64130;-86
2021/08/08 07:10:52;;;;;;;5.00;2.70;;;;;;;30.19;48.92;100925.39;128527;1082;64124;-86
2021/08/08 07:13:18;;;;;;;4.40;2.97;;;;;;;30.19;48.83;100930.83;128470;1084;64135;-84
2021/08/08 07:15:46;;;;;;;4.77;3.03;;;;;;;30.19;48.48;100922.66;128531;1084;64082;-86
2021/08/08 07:18:13;;;;;;;5.27;2.87;;;;;;;30.19;48.47;100928.11;128458;1084;64253;-86
2021/08/08 07:20:40;;;;;;;5.03;3.00;;;;;;;30.20;48.64;100926.27;128926;1084;64189;-86
2021/08/08 07:23:06;;;;;;;4.73;3.20;;;;;;;30.20;48.38;100921.66;128921;1082;64108;-86
2021/08/08 07:25:32;;;;;;;4.40;3.00;;;;;;;30.21;48.33;100927.97;128509;1084;64301;-87
2021/08/08 07:28:08;;;;;;;4.37;2.93;;;;;;;30.20;48.41;100928.98;128473;1083;64626;-86
2021/08/08 07:30:35;;;;;;;4.87;2.97;;;;;;;30.20;48.62;100935.27;128918;1083;64111;-85
2021/08/08 07:33:03;;;;;;;4.97;2.80;;;;;;;30.20;48.38;100928.98;128486;1084;64131;-85
2021/08/08 07:35:29;;;;;;;4.40;2.93;;;;;;;30.19;48.61;100933.55;128515;1084;64210;-88
2021/08/08 07:37:56;;;;;;;4.37;2.63;;;;;;;30.20;48.80;100932.55;128444;1084;64141;-86
2021/08/08 07:40:24;;;;;;;4.00;2.77;;;;;;;30.20;48.34;100928.98;128913;1084;64128;-85
2021/08/08 07:42:51;;;;;;;5.20;3.00;;;;;;;30.21;48.32;100930.69;128488;1082;64642;-85
2021/08/08 07:45:18;;;;;;;4.67;3.00;;;;;;;30.21;48.92;100936.98;128481;1082;64188;-86
2021/08/08 07:47:44;;;;;;;4.63;3.07;;;;;;;30.21;48.48;100934.25;128481;1084;64121;-86
2021/08/08 07:50:11;;;;;;;4.40;2.43;;;;;;;30.21;48.71;100934.25;128498;1084;64275;-85
2021/08/08 07:52:37;;;;;;;4.07;2.87;;;;;;;30.21;48.72;100936.98;128501;1084;64147;-86
2021/08/08 07:55:05;;;;;;;4.57;2.90;;;;;;;30.21;48.88;100939.70;128890;1084;64182;-85
2021/08/08 07:57:32;;;;;;;4.70;2.93;;;;;;;30.19;48.87;100941.72;128546;1084;64229;-87
2021/08/08 07:59:58;;;;;;;3.67;2.67;;;;;;;30.21;48.55;100939.70;128524;1084;64120;-86
2021/08/08 08:02:27;;;;;;;4.90;2.73;;;;;;;30.20;48.56;100943.44;128469;1083;64154;-85
2021/08/08 08:04:55;;;;;;;4.20;2.80;;;;;;;30.22;48.35;100945.98;128458;1084;64201;-86
2021/08/08 08:07:22;;;;;;;;;;;;;;;30.20;48.32;100946.16;128537;1084;64207;-86
2021/08/08 08:09:52;;;;;;;4.10;2.77;;;;;;;30.19;48.86;100947.17;128535;1084;64128;-86
2021/08/08 08:12:19;;;;;;;4.13;2.70;;;;;;;30.20;48.33;100946.16;128549;1083;64175;-85
2021/08/08 08:14:45;;;;;;;4.13;2.60;;;;;;;30.20;48.83;100948.04;128489;1084;64135;-86
2021/08/08 08:17:21;;;;;;;4.23;2.70;;;;;;;30.20;48.75;100948.04;128487;1084;62171;-86
2021/08/08 08:19:47;;;;;;;4.17;2.40;;;;;;;30.20;48.33;100948.04;128955;1082;64140;-86
2021/08/08 08:22:16;;;;;;;4.45;2.70;;;;;;;30.21;48.38;100952.47;128462;1084;64307;-86
2021/08/08 08:24:45;;;;;;;4.35;2.88;;;;;;;30.20;48.71;100945.31;128470;1082;64240;-86
2021/08/08 08:27:16;;;;;;;4.00;2.80;;;;;;;30.21;48.53;100949.75;128499;1084;64141;-86
2021/08/08 08:29:42;;;;;;;4.03;2.80;;;;;;;30.21;48.56;100945.14;128513;1084;64128;-86
2021/08/08 08:32:10;;;;;;;4.10;2.70;;;;;;;30.22;48.89;100951.43;128461;1083;64616;-86
2021/08/08 08:34:44;;;;;;;3.73;2.70;;;;;;;30.21;48.61;100939.70;128498;1084;64208;-86
2021/08/08 08:37:12;;;;;;;4.40;2.57;;;;;;;30.22;48.80;100938.69;128484;1084;64128;-86
2021/08/08 08:39:38;;;;;;;4.10;2.60;;;;;;;30.22;48.47;100938.69;128492;1084;64138;-86
2021/08/08 08:42:05;;;;;;;3.90;2.73;;;;;;;30.22;48.70;100940.54;128546;1083;64128;-86
2021/08/08 08:44:31;;;;;;;3.93;2.70;;;;;;;30.22;48.87;100938.69;128511;1084;64199;-86
2021/08/08 08:47:01;;;;;;;3.70;2.60;;;;;;;30.22;48.81;100930.52;128518;1083;64098;-86
2021/08/08 08:49:28;;;;;;;4.30;3.00;;;;;;;30.22;48.66;100935.97;128529;1082;64019;-86
2021/08/08 08:51:59;;;;;;;4.10;2.60;;;;;;;30.22;48.75;100927.80;128471;1084;64131;-86
2021/08/08 08:54:28;;;;;;;4.35;2.70;;;;;;;30.23;48.87;100923.19;128908;1084;65340;-86
2021/08/08 08:56:56;;;;;;;4.27;2.70;;;;;;;30.22;48.52;100925.08;128491;1084;64274;-86
2021/08/08 08:59:24;;;;;;;3.90;2.65;;;;;;;30.23;49.01;100917.75;128530;1084;64131;-85
2021/08/08 09:01:54;;;;;;;3.87;2.73;;;;;;;30.23;48.90;100921.34;128468;1082;62817;-86
2021/08/08 09:04:20;;;;;;;3.30;2.50;;;;;;;30.23;48.66;100926.78;128486;1084;64208;-88
2021/08/08 09:06:47;;;;;;;4.03;2.77;;;;;;;30.23;48.62;100929.52;128476;1083;64259;-86
2021/08/08 09:09:15;;;;;;;5.27;2.87;;;;;;;30.24;48.89;100924.91;128518;1084;64305;-85
2021/08/08 09:11:43;;;;;;;3.60;2.60;;;;;;;30.24;48.47;100924.91;128478;1084;63315;-86
2021/08/08 09:14:11;;;;;;;3.35;2.38;;;;;;;30.24;48.89;100923.02;128470;1084;65344;-86
2021/08/08 09:16:42;;;;;;;3.83;2.70;;;;;;;30.23;48.90;100918.62;128507;1083;64160;-86
2021/08/08 09:19:20;;;;;;;4.43;2.60;;;;;;;30.24;48.81;100914.02;128491;1084;64253;-86
2021/08/08 09:21:46;;;;;;;4.10;2.60;;;;;;;30.24;48.36;100919.45;128440;1084;64124;-84
2021/08/08 09:24:31;;;;;;;3.83;2.67;;;;;;;30.24;48.35;100911.29;128791;1082;64099;-85
2021/08/08 09:27:03;;;;;;;4.50;2.70;;;;;;;30.24;48.40;100905.84;128906;1084;64076;-85
2021/08/08 09:29:29;;;;;;;5.97;2.70;;;;;;;30.24;48.44;100909.41;128831;1084;64134;-85
2021/08/08 09:31:55;;;;;;;3.40;2.40;;;;;;;30.23;48.52;100907.73;128867;1082;64128;-85
2021/08/08 09:34:26;;;;;;;4.03;2.57;;;;;;;30.24;48.80;100911.29;128841;1084;64199;-86
2021/08/08 09:36:55;;;;;;;3.87;2.70;;;;;;;30.24;49.01;100914.85;128938;1082;64201;-86
2021/08/08 09:39:38;;;;;;;4.58;2.60;;;;;;;30.24;48.70;100911.29;128543;1082;64137;-86
2021/08/08 09:42:32;;;;;;;4.13;2.73;;;;;;;30.24;48.99;100914.02;128523;1084;64037;-86
2021/08/08 09:45:03;;;;;;;3.33;2.53;;;;;;;30.23;49.10;100913.17;127955;1087;64157;-86
2021/08/08 09:47:44;;;;;;;3.87;2.70;;;;;;;30.23;48.99;100915.02;128022;1087;64332;-86
2021/08/08 09:50:15;;;;;;;4.17;2.87;;;;;;;30.23;49.24;100915.89;128012;1087;64083;-86
2021/08/08 09:52:52;;;;;;;3.77;2.40;;;;;;;30.22;48.66;100914.19;128052;1087;63952;-86
2021/08/08 09:55:27;;;;;;;3.53;2.50;;;;;;;30.22;49.10;100919.63;128373;1084;64099;-88
2021/08/08 09:57:55;;;;;;;3.83;2.70;;;;;;;30.22;49.10;100914.19;128391;1087;64215;-86
2021/08/08 10:00:25;;;;;;;3.70;2.40;;;;;;;30.22;48.75;100907.88;128048;1087;64378;-86
2021/08/08 10:02:52;;;;;;;3.50;2.50;;;;;;;30.21;48.88;100904.30;127943;1087;64118;-89
2021/08/08 10:05:22;;;;;;;3.47;2.70;;;;;;;30.22;48.82;100899.70;127981;1087;64141;-86
2021/08/08 10:07:49;;;;;;;4.17;2.70;;;;;;;30.21;49.25;100903.47;128041;1087;62154;-86
2021/08/08 10:10:16;;;;;;;3.50;2.40;;;;;;;30.20;49.03;100899.88;128024;1087;64164;-85
2021/08/08 10:13:15;;;;;;;4.03;2.80;;;;;;;30.20;48.70;100891.70;128015;1087;64288;-85
2021/08/08 10:15:43;;;;;;;3.47;2.40;;;;;;;30.20;49.13;100893.59;128409;1087;64137;-85
2021/08/08 10:18:14;;;;;;;4.00;2.60;;;;;;;30.20;49.46;100890.87;128035;1087;64208;-85
2021/08/08 10:20:40;;;;;;;4.45;2.70;;;;;;;30.21;48.87;100898.02;128076;1087;64387;-86
2021/08/08 10:23:08;;;;;;;3.70;2.57;;;;;;;30.20;49.33;100893.59;128666;1084;64216;-85
2021/08/08 10:25:34;;;;;;;3.40;2.50;;;;;;;30.20;49.20;100897.15;129108;1083;64144;-85
2021/08/08 10:28:00;;;;;;;4.07;2.60;;;;;;;30.21;48.78;100892.58;128542;1084;64588;-86
2021/08/08 10:30:49;;;;;;;3.70;2.33;;;;;;;30.22;49.26;100902.42;128511;1084;64227;-85
2021/08/08 10:33:16;;;;;;;4.10;2.40;;;;;;;30.21;49.07;100892.58;128365;1086;64134;-86
2021/08/08 10:35:47;;;;;;;3.90;2.60;;;;;;;30.22;49.09;100888.81;127994;1085;64334;-86
2021/08/08 10:38:15;;;;;;;3.80;2.30;;;;;;;30.21;48.78;100890.69;127983;1087;64131;-86
2021/08/08 10:40:43;;;;;;;3.33;2.23;;;;;;;30.21;48.60;100889.85;128055;1085;63948;-86
2021/08/08 10:43:24;;;;;;;3.15;2.20;;;;;;;30.21;48.60;100884.41;128009;1085;64129;-86
2021/08/08 10:46:11;;;;;;;3.20;2.20;;;;;;;30.20;48.36;100885.42;128018;1087;64112;-86
2021/08/08 10:49:03;;;;;;;3.50;2.23;;;;;;;30.19;48.77;100884.55;127925;1087;64317;-85
2021/08/08 10:51:30;;;;;;;3.90;2.83;;;;;;;30.20;48.57;100879.98;127793;1090;64297;-85
2021/08/08 10:54:06;;;;;;;4.13;2.40;;;;;;;30.19;48.17;100883.71;127762;1090;64351;-85
2021/08/08 10:56:47;;;;;;;3.93;2.60;;;;;;;30.19;48.42;100881.83;127766;1088;64297;-86
2021/08/08 10:59:22;;;;;;;3.40;2.37;;;;;;;30.19;48.19;100886.44;127722;1090;64243;-86
2021/08/08 11:02:07;;;;;;;3.23;2.20;;;;;;;30.18;47.99;100877.42;127558;1090;64109;-85
2021/08/08 11:04:36;;;;;;;3.27;2.40;;;;;;;30.19;48.12;100870.94;127703;1090;64172;-85
2021/08/08 11:07:04;;;;;;;3.90;2.37;;;;;;;30.18;47.87;100874.70;127613;1090;64230;-85
2021/08/08 11:09:37;;;;;;;3.13;2.17;;;;;;;30.19;48.32;100864.66;127671;1090;64163;-85
2021/08/08 11:12:05;;;;;;;3.10;2.10;;;;;;;30.19;48.27;100851.88;127915;1086;64399;-85
2021/08/08 11:14:32;;;;;;;3.90;2.50;;;;;;;30.19;47.82;100851.04;127844;1087;64165;-85
2021/08/08 11:17:07;;;;;;;3.73;2.33;;;;;;;30.19;47.86;100853.77;127863;1087;64315;-86
2021/08/08 11:19:42;;;;;;;4.00;2.25;;;;;;;30.19;48.26;100846.44;127975;1087;64124;-86
2021/08/08 11:22:15;;;;;;;3.47;2.30;;;;;;;30.19;48.08;100837.43;128369;1087;64154;-86
2021/08/08 11:24:44;;;;;;;3.60;2.40;;;;;;;30.19;47.87;100843.71;128022;1087;64281;-87
2021/08/08 11:27:10;;;;;;;3.40;2.18;;;;;;;30.18;47.78;100831.14;128397;1086;64269;-85